Enion, Illinois
Current Conditions -  °F | °C
As of 9:54 PM on Thursday 27 Nov 2014 (Local Time) from KPIA Reporting Station
Clear Clear  
Wind Chill: 15°   Ceiling: Unl
Heat Index: 15°   Visibility: 10mi
Dew Point:   Wind: 3mph
Humidity: 77%   Direction: 270°W
Pressure: 30.43"   Gusts: NA
Location:  40.2774°N, 90.0095°W
Report Text: KPIA 280354Z 27003KT 10SM CLR M09/M13 A3043 RMK AO2 SLP316 T10941128
Loading
Personal Weather Stations






























Interactive Weather Map New forecast layout! Learn more

10-Day Weather Forecast

Advertisements
Track Severe Weather on mobile